Time;durP1;ratioP1;P1;durP2;ratioP2;P2;SDS_P1;SDS_P2;PMS_P1;PMS_P2;Temp;Humidity;BMP_temperature;BMP_pressure;BME280_temperature;BME280_humidity;BME280_pressure;Samples;Min_cycle;Max_cycle;Signal;HPM_P1;HPM_P2
2022/04/05 00:00:55;;;;;;;12.45;8.88;;;;;;;0.98;59.54;99957.31;1699966;82;21601;-71
2022/04/05 00:03:22;;;;;;;13.25;8.95;;;;;;;0.97;59.50;99949.13;1684552;82;21045;-71
2022/04/05 00:05:49;;;;;;;13.60;8.78;;;;;;;0.96;59.48;99944.89;1692257;84;21130;-70
2022/04/05 00:08:16;;;;;;;12.85;9.48;;;;;;;0.97;59.42;99947.02;1692502;82;21050;-70
2022/04/05 00:10:44;;;;;;;12.98;8.88;;;;;;;0.93;59.40;99940.85;1693457;83;21102;-70
2022/04/05 00:13:12;;;;;;;14.63;9.55;;;;;;;0.92;59.40;99938.42;1691389;82;21031;-70
2022/04/05 00:15:41;;;;;;;13.13;9.70;;;;;;;0.93;59.39;99938.73;1696027;83;21007;-69
2022/04/05 00:18:09;;;;;;;13.10;9.38;;;;;;;0.91;59.41;99932.36;1690131;83;21230;-70
2022/04/05 00:20:36;;;;;;;12.82;9.58;;;;;;;0.93;59.41;99928.22;1678985;82;21025;-70
2022/04/05 00:23:05;;;;;;;13.40;9.63;;;;;;;0.93;59.39;99924.27;1700886;83;21120;-70
2022/04/05 00:25:33;;;;;;;11.57;8.95;;;;;;;0.93;59.41;99926.39;1699246;82;20991;-70
2022/04/05 00:28:02;;;;;;;12.25;8.25;;;;;;;0.94;59.37;99929.31;1696104;83;21024;-70
2022/04/05 00:30:31;;;;;;;13.88;9.28;;;;;;;0.92;59.36;99922.64;1689759;82;20956;-69
2022/04/05 00:32:58;;;;;;;12.35;8.70;;;;;;;0.90;59.34;99920.75;1691200;82;21002;-71
2022/04/05 00:35:26;;;;;;;11.85;8.25;;;;;;;0.89;59.32;99916.52;1691600;84;21086;-70
2022/04/05 00:37:54;;;;;;;13.95;8.88;;;;;;;0.89;59.35;99918.63;1700281;83;21126;-70
2022/04/05 00:40:21;;;;;;;12.28;8.70;;;;;;;0.92;59.33;99910.81;1690015;84;21113;-70
2022/04/05 00:42:48;;;;;;;13.25;8.78;;;;;;;0.93;59.30;99909.81;1688168;82;21252;-71
2022/04/05 00:45:16;;;;;;;12.20;8.80;;;;;;;0.91;59.28;99903.95;1694479;82;21526;-71
2022/04/05 00:47:48;;;;;;;12.33;9.15;;;;;;;0.92;59.22;99909.02;1703577;82;21011;-71
2022/04/05 00:50:21;;;;;;;12.50;9.17;;;;;;;0.91;59.19;99909.20;1691137;83;21141;-71
2022/04/05 00:52:50;;;;;;;12.23;8.53;;;;;;;0.88;59.13;99908.30;1686746;82;22233;-71
2022/04/05 00:55:22;;;;;;;11.20;8.53;;;;;;;0.87;59.10;99906.70;1694778;82;21815;-70
2022/04/05 00:57:51;;;;;;;;;;;;;;;0.85;59.04;99907.41;1690624;83;21123;-70
2022/04/05 01:00:19;;;;;;;10.68;7.72;;;;;;;0.84;59.03;99901.86;1693441;82;20193;-71
2022/04/05 01:02:48;;;;;;;13.53;8.73;;;;;;;0.82;59.05;99895.99;1685758;82;21054;-72
2022/04/05 01:05:21;;;;;;;11.78;8.28;;;;;;;0.82;59.07;99898.11;1687224;82;21103;-71
2022/04/05 01:07:47;;;;;;;11.60;8.03;;;;;;;0.84;59.08;99895.29;1688160;82;21333;-72
2022/04/05 01:10:15;;;;;;;12.07;8.15;;;;;;;0.84;59.02;99890.03;1680151;84;21012;-72
2022/04/05 01:12:42;;;;;;;11.65;8.35;;;;;;;0.84;59.00;99882.95;1686829;82;20987;-72
2022/04/05 01:15:09;;;;;;;10.45;7.90;;;;;;;0.83;58.91;99882.66;1677141;84;21036;-71
2022/04/05 01:17:38;;;;;;;12.05;7.40;;;;;;;0.82;58.85;99876.28;1676086;84;21054;-72
2022/04/05 01:20:08;;;;;;;13.22;8.45;;;;;;;0.82;58.80;99878.39;1647193;84;22163;-72
2022/04/05 01:22:35;;;;;;;10.28;7.55;;;;;;;0.82;58.74;99868.39;1712625;81;21110;-72
2022/04/05 01:25:03;;;;;;;11.43;7.85;;;;;;;0.82;58.69;99866.56;1702850;83;21058;-71
2022/04/05 01:27:30;;;;;;;10.40;7.90;;;;;;;0.82;58.65;99860.50;1683330;83;20998;-71
2022/04/05 01:29:57;;;;;;;11.90;7.97;;;;;;;0.80;58.51;99859.92;1709714;83;21501;-72
2022/04/05 01:32:24;;;;;;;11.22;7.87;;;;;;;0.78;58.43;99852.75;1704458;84;21592;-71
2022/04/05 01:34:51;;;;;;;11.97;7.72;;;;;;;0.80;58.44;99842.84;1694381;82;21558;-72
2022/04/05 01:37:18;;;;;;;11.18;7.75;;;;;;;0.82;58.39;99838.16;1699962;84;21091;-72
2022/04/05 01:39:45;;;;;;;10.75;7.90;;;;;;;0.84;58.35;99836.94;1690247;82;21011;-72
2022/04/05 01:42:13;;;;;;;11.75;7.80;;;;;;;0.86;58.30;99833.60;1685131;82;21740;-69
2022/04/05 01:44:42;;;;;;;10.78;7.65;;;;;;;0.87;58.25;99829.14;1685144;82;21082;-71
2022/04/05 01:47:16;;;;;;;9.78;7.67;;;;;;;0.86;58.20;99827.03;1674167;84;21625;-71
2022/04/05 01:49:46;;;;;;;11.68;7.35;;;;;;;0.85;58.15;99822.77;1674133;84;21078;-72
2022/04/05 01:52:13;;;;;;;10.75;7.35;;;;;;;0.86;58.06;99823.59;1687676;82;21078;-71
2022/04/05 01:54:40;;;;;;;10.68;7.75;;;;;;;0.84;57.99;99822.48;1715690;83;21019;-71
2022/04/05 01:57:07;;;;;;;10.03;7.15;;;;;;;0.82;57.97;99817.93;1689033;83;22279;-70
2022/04/05 01:59:36;;;;;;;10.00;7.42;;;;;;;0.84;57.93;99814.59;1706029;83;21140;-70
2022/04/05 02:02:09;;;;;;;10.00;7.20;;;;;;;0.86;57.94;99813.09;1688234;82;21083;-72
2022/04/05 02:04:36;;;;;;;9.38;6.85;;;;;;;0.85;57.88;99809.63;1688494;83;21114;-70
2022/04/05 02:07:14;;;;;;;12.60;6.92;;;;;;;0.83;57.86;99806.42;1690544;82;20872;-71
2022/04/05 02:09:42;;;;;;;10.88;7.75;;;;;;;0.83;57.80;99798.53;1705337;81;21745;-71
2022/04/05 02:12:11;;;;;;;9.15;6.97;;;;;;;0.84;57.76;99804.59;1680871;84;20960;-72
2022/04/05 02:14:43;;;;;;;8.85;6.75;;;;;;;0.86;57.72;99802.56;1721432;83;21062;-72
2022/04/05 02:17:13;;;;;;;10.90;7.53;;;;;;;0.86;57.61;99795.48;1680589;84;21046;-72
2022/04/05 02:19:44;;;;;;;10.13;7.20;;;;;;;0.88;57.48;99799.20;1679122;84;20967;-72
2022/04/05 02:22:14;;;;;;;11.38;7.33;;;;;;;0.91;57.36;99797.46;1688774;84;21155;-72
2022/04/05 02:24:42;;;;;;;9.13;6.80;;;;;;;0.92;57.22;99792.49;1716869;82;21098;-71
2022/04/05 02:27:10;;;;;;;9.90;6.45;;;;;;;0.93;57.15;99794.13;1681387;84;21004;-72
2022/04/05 02:29:39;;;;;;;10.00;6.87;;;;;;;0.94;56.85;99789.16;1720576;83;21106;-71
2022/04/05 02:32:09;;;;;;;11.53;7.00;;;;;;;0.98;56.77;99786.91;1691228;83;21038;-71
2022/04/05 02:34:36;;;;;;;9.18;6.45;;;;;;;0.99;56.67;99793.28;1694359;84;21203;-71
2022/04/05 02:37:04;;;;;;;10.45;6.95;;;;;;;1.03;56.63;99787.08;1669243;82;20916;-71
2022/04/05 02:39:33;;;;;;;9.50;6.97;;;;;;;1.04;56.59;99776.34;1704184;83;20936;-71
2022/04/05 02:42:03;;;;;;;9.75;6.75;;;;;;;1.08;56.53;99774.88;1704220;82;20959;-72
2022/04/05 02:44:33;;;;;;;9.68;6.55;;;;;;;1.09;56.52;99772.57;1692281;83;20979;-71
2022/04/05 02:47:04;;;;;;;9.58;6.87;;;;;;;1.11;56.52;99765.25;1675962;84;21175;-72
2022/04/05 02:49:34;;;;;;;10.10;6.67;;;;;;;1.13;56.46;99766.38;1696791;82;21553;-70
2022/04/05 02:52:04;;;;;;;10.82;6.70;;;;;;;1.11;56.31;99755.25;1702889;82;21012;-71
2022/04/05 02:54:33;;;;;;;11.12;6.50;;;;;;;1.12;56.16;99753.73;1702725;83;24568;-71
2022/04/05 02:57:04;;;;;;;10.38;7.15;;;;;;;1.11;56.12;99749.47;1703439;82;20975;-70
2022/04/05 02:59:31;;;;;;;10.13;6.85;;;;;;;1.13;56.04;99744.81;1700894;82;21387;-71
2022/04/05 03:02:00;;;;;;;12.20;6.80;;;;;;;1.14;55.80;99745.62;1686887;82;21389;-72
2022/04/05 03:04:27;;;;;;;9.33;6.75;;;;;;;1.15;55.81;99745.41;1690170;83;20955;-72
2022/04/05 03:06:56;;;;;;;9.00;6.62;;;;;;;1.17;55.66;99736.78;1701874;82;21513;-72
2022/04/05 03:09:25;;;;;;;10.98;7.50;;;;;;;1.22;55.63;99737.95;1688954;82;21576;-71
2022/04/05 03:11:54;;;;;;;10.75;6.97;;;;;;;1.25;55.65;99737.52;1676013;84;21191;-71
2022/04/05 03:14:22;;;;;;;10.68;7.15;;;;;;;1.29;55.64;99742.67;1699255;82;21094;-72
2022/04/05 03:16:49;;;;;;;9.03;7.25;;;;;;;1.29;55.63;99735.58;1703526;82;21015;-72
2022/04/05 03:19:18;;;;;;;10.82;7.45;;;;;;;1.33;55.62;99735.95;1683485;84;21597;-72
2022/04/05 03:21:48;;;;;;;9.48;7.05;;;;;;;1.35;55.68;99729.94;1675723;84;21018;-72
2022/04/05 03:24:15;;;;;;;11.10;8.03;;;;;;;1.39;55.70;99724.05;1682038;82;21185;-71
2022/04/05 03:26:44;;;;;;;12.73;7.87;;;;;;;1.43;55.70;99715.20;1675742;84;21467;-72
2022/04/05 03:29:12;;;;;;;11.20;8.08;;;;;;;1.48;55.66;99716.69;1677057;84;21117;-72
2022/04/05 03:31:40;;;;;;;11.55;7.97;;;;;;;1.50;55.68;99711.99;1713084;83;20967;-71
2022/04/05 03:34:07;;;;;;;10.80;7.67;;;;;;;1.53;55.64;99712.08;1694810;83;21038;-71
2022/04/05 03:36:36;;;;;;;11.08;8.15;;;;;;;1.54;55.64;99705.78;1704540;83;21353;-72
2022/04/05 03:39:03;;;;;;;13.18;8.33;;;;;;;1.55;55.69;99704.78;1688317;83;21007;-70
2022/04/05 03:41:30;;;;;;;11.53;8.13;;;;;;;1.57;55.76;99698.77;1690714;82;20988;-72
2022/04/05 03:43:58;;;;;;;11.05;8.35;;;;;;;1.61;55.72;99702.56;1685994;82;21066;-71
2022/04/05 03:46:27;;;;;;;12.43;8.38;;;;;;;1.66;55.81;99701.92;1688279;82;21154;-72
2022/04/05 03:48:56;;;;;;;11.48;8.65;;;;;;;1.69;55.82;99704.92;1692293;82;21533;-72
2022/04/05 03:51:24;;;;;;;12.68;8.63;;;;;;;1.73;55.89;99697.38;1691602;82;21086;-71
2022/04/05 03:53:54;;;;;;;11.88;9.00;;;;;;;1.77;55.93;99696.71;1675213;84;21057;-71
2022/04/05 03:56:23;;;;;;;11.38;8.50;;;;;;;1.83;55.94;99691.09;1674396;84;20974;-71
2022/04/05 03:58:52;;;;;;;11.63;8.73;;;;;;;1.91;55.94;99692.61;1667716;84;21529;-71
2022/04/05 04:01:20;;;;;;;11.03;8.28;;;;;;;1.95;55.89;99691.16;1681725;83;21153;-72
2022/04/05 04:03:49;;;;;;;13.95;8.98;;;;;;;1.99;55.93;99685.22;1688774;82;21522;-71
2022/04/05 04:06:16;;;;;;;12.18;8.68;;;;;;;2.05;55.89;99683.02;1689438;82;21117;-70
2022/04/05 04:08:44;;;;;;;13.13;9.48;;;;;;;2.11;55.86;99686.08;1678472;82;21554;-71
2022/04/05 04:11:13;;;;;;;15.05;11.18;;;;;;;2.20;55.84;99684.44;1700597;82;21095;-71
2022/04/05 04:13:42;;;;;;;14.07;9.85;;;;;;;2.28;55.80;99680.19;1685715;82;21893;-71
2022/04/05 04:16:10;;;;;;;12.33;8.70;;;;;;;2.38;55.80;99679.66;1686757;82;21148;-72
2022/04/05 04:18:39;;;;;;;13.03;9.35;;;;;;;2.45;55.66;99675.88;1710651;82;20975;-72
2022/04/05 04:21:09;;;;;;;12.88;8.95;;;;;;;2.54;55.59;99677.17;1679773;83;21142;-71
2022/04/05 04:23:37;;;;;;;14.18;9.48;;;;;;;2.63;55.48;99666.29;1707319;83;21062;-70
2022/04/05 04:26:05;;;;;;;12.60;9.45;;;;;;;2.69;55.27;99671.98;1690050;82;21217;-70
2022/04/05 04:28:33;;;;;;;12.58;10.05;;;;;;;2.75;55.13;99671.88;1689082;83;20952;-70
2022/04/05 04:31:00;;;;;;;14.38;9.98;;;;;;;2.81;55.12;99673.61;1691746;84;21501;-71
2022/04/05 04:33:27;;;;;;;12.80;9.33;;;;;;;2.90;55.05;99669.33;1700631;83;20987;-72
2022/04/05 04:35:54;;;;;;;12.47;9.70;;;;;;;2.97;54.96;99670.02;1702002;83;21184;-71
2022/04/05 04:38:23;;;;;;;11.28;8.68;;;;;;;3.02;54.86;99664.33;1699208;82;21158;-69
2022/04/05 04:40:50;;;;;;;12.73;9.68;;;;;;;3.12;54.79;99660.31;1714393;83;21611;-71
2022/04/05 04:43:19;;;;;;;14.50;10.43;;;;;;;3.19;54.68;99662.31;1686523;83;21107;-70
2022/04/05 04:45:46;;;;;;;14.70;10.20;;;;;;;3.24;54.65;99661.92;1690683;83;21554;-70
2022/04/05 04:48:13;;;;;;;13.20;10.38;;;;;;;3.32;54.69;99660.76;1698845;83;21015;-71
2022/04/05 04:50:40;;;;;;;12.37;9.88;;;;;;;3.36;54.43;99655.33;1684784;83;21273;-69
2022/04/05 04:53:07;;;;;;;13.78;9.73;;;;;;;3.42;54.37;99662.33;1689708;83;21125;-70
2022/04/05 04:55:34;;;;;;;12.78;9.58;;;;;;;3.44;54.19;99654.16;1707116;83;21108;-71
2022/04/05 04:58:01;;;;;;;14.20;10.75;;;;;;;3.48;54.09;99651.33;1684268;82;21109;-71
2022/04/05 05:00:29;;;;;;;12.80;10.13;;;;;;;3.51;54.09;99650.35;1687046;84;20968;-71
2022/04/05 05:02:57;;;;;;;12.82;10.20;;;;;;;3.58;54.04;99647.58;1696426;83;21539;-72
2022/04/05 05:05:24;;;;;;;14.90;10.98;;;;;;;3.66;53.85;99643.80;1692750;82;21039;-71
2022/04/05 05:07:52;;;;;;;14.68;10.93;;;;;;;3.73;53.74;99640.50;1677282;84;21062;-71
2022/04/05 05:10:22;;;;;;;11.90;9.60;;;;;;;3.82;53.63;99635.14;1700383;83;21169;-70
2022/04/05 05:12:50;;;;;;;14.30;10.25;;;;;;;3.94;53.44;99635.87;1708708;81;21035;-70
2022/04/05 05:15:21;;;;;;;15.50;9.75;;;;;;;4.07;53.41;99628.19;1715195;83;21058;-71
2022/04/05 05:17:48;;;;;;;12.90;9.83;;;;;;;4.18;52.93;99627.34;1710408;83;21011;-71
2022/04/05 05:20:16;;;;;;;12.25;9.28;;;;;;;4.30;52.75;99623.30;1702881;82;21093;-70
2022/04/05 05:22:45;;;;;;;12.50;9.58;;;;;;;4.41;52.55;99622.98;1701861;83;21018;-71
2022/04/05 05:25:12;;;;;;;14.15;10.63;;;;;;;4.54;52.44;99631.09;1700780;82;21126;-71
2022/04/05 05:27:39;;;;;;;12.78;10.28;;;;;;;4.62;51.95;99622.78;1701813;83;21261;-71
2022/04/05 05:30:08;;;;;;;14.00;10.23;;;;;;;4.71;51.77;99623.98;1693629;81;21133;-71
2022/04/05 05:32:45;;;;;;;13.28;10.20;;;;;;;4.77;51.53;99626.16;1702201;82;20980;-71
2022/04/05 05:35:14;;;;;;;13.15;10.68;;;;;;;4.82;51.42;99617.00;1691463;83;21074;-70
2022/04/05 05:37:42;;;;;;;14.50;10.65;;;;;;;4.87;50.93;99615.23;1690549;82;20955;-71
2022/04/05 05:40:10;;;;;;;13.28;10.48;;;;;;;4.88;50.87;99614.71;1696352;82;21531;-71
2022/04/05 05:42:55;;;;;;;16.40;11.12;;;;;;;4.89;50.88;99617.63;1702551;82;21546;-71
2022/04/05 05:45:22;;;;;;;14.38;10.63;;;;;;;4.91;50.96;99610.27;1703483;82;21064;-71
2022/04/05 05:47:50;;;;;;;14.47;10.48;;;;;;;4.97;50.96;99601.85;1703402;84;21005;-72
2022/04/05 05:50:17;;;;;;;15.03;10.38;;;;;;;5.04;51.07;99603.83;1701227;82;21118;-70
2022/04/05 05:52:45;;;;;;;13.03;9.50;;;;;;;5.14;50.86;99601.31;1682957;83;21184;-71
2022/04/05 05:55:14;;;;;;;13.75;11.00;;;;;;;5.21;50.93;99601.94;1687889;84;21116;-71
2022/04/05 05:57:40;;;;;;;14.13;10.70;;;;;;;5.27;50.85;99594.34;1707628;82;21097;-71
2022/04/05 06:00:11;;;;;;;13.93;10.60;;;;;;;5.35;50.78;99593.90;1690191;83;21549;-70
2022/04/05 06:02:42;;;;;;;12.30;10.05;;;;;;;5.44;50.68;99595.61;1679484;83;21050;-71
2022/04/05 06:05:09;;;;;;;12.60;9.40;;;;;;;5.52;50.66;99588.54;1689305;83;21960;-71
2022/04/05 06:07:36;;;;;;;12.82;10.18;;;;;;;5.59;50.50;99579.08;1668117;84;21058;-70
2022/04/05 06:10:05;;;;;;;14.78;10.35;;;;;;;5.64;50.38;99580.48;1685340;83;21427;-70
2022/04/05 06:12:33;;;;;;;13.35;10.30;;;;;;;5.71;50.07;99577.11;1683960;83;21495;-71
2022/04/05 06:15:01;;;;;;;14.15;10.90;;;;;;;5.73;50.36;99581.64;1661450;84;21125;-70
2022/04/05 06:17:29;;;;;;;12.07;9.68;;;;;;;5.83;50.35;99575.13;1681024;84;21831;-70
2022/04/05 06:19:57;;;;;;;13.48;9.43;;;;;;;5.96;50.23;99569.19;1680600;83;21023;-71
2022/04/05 06:22:27;;;;;;;13.48;10.88;;;;;;;6.03;49.59;99567.92;1710439;83;20983;-71
2022/04/05 06:29:13;;;;;;;14.00;10.35;;;;;;;6.10;49.48;99571.16;1688384;84;21142;-70
2022/04/05 06:31:39;;;;;;;13.03;10.35;;;;;;;6.18;49.17;99556.64;1706760;83;21527;-71
2022/04/05 06:34:07;;;;;;;12.75;10.10;;;;;;;6.20;49.27;99562.50;1719538;82;21038;-71
2022/04/05 06:36:33;;;;;;;13.48;9.63;;;;;;;6.25;49.07;99557.25;1693005;83;21364;-72
2022/04/05 06:39:00;;;;;;;13.08;10.40;;;;;;;6.33;49.24;99546.70;1675502;84;21067;-71
2022/04/05 06:41:28;;;;;;;13.35;10.43;;;;;;;6.43;49.23;99545.45;1682441;83;21158;-72
2022/04/05 06:43:57;;;;;;;13.75;10.65;;;;;;;6.56;49.01;99546.34;1693854;82;21155;-71
2022/04/05 06:46:25;;;;;;;11.40;9.38;;;;;;;6.63;48.21;99544.79;1693825;82;21076;-70
2022/04/05 06:48:52;;;;;;;11.12;9.08;;;;;;;6.65;47.67;99545.88;1700640;82;21042;-71
2022/04/05 06:51:20;;;;;;;13.60;10.28;;;;;;;6.68;47.58;99543.51;1691534;82;21029;-70
2022/04/05 06:53:51;;;;;;;13.43;9.70;;;;;;;6.74;47.10;99538.48;1702843;83;21026;-70
2022/04/05 06:56:21;;;;;;;14.70;10.88;;;;;;;6.74;46.97;99528.39;1691414;84;21943;-70
2022/04/05 06:58:50;;;;;;;11.83;10.08;;;;;;;6.79;47.21;99529.23;1692268;82;21100;-70
2022/04/05 07:01:17;;;;;;;13.60;9.78;;;;;;;6.93;46.78;99530.10;1690290;84;21003;-70
2022/04/05 07:03:45;;;;;;;13.48;10.43;;;;;;;7.12;46.53;99529.92;1692770;82;21024;-71
2022/04/05 07:06:13;;;;;;;12.00;9.38;;;;;;;7.23;45.38;99525.45;1689606;82;21027;-72
2022/04/05 07:08:40;;;;;;;12.95;9.80;;;;;;;7.27;45.01;99522.03;1687667;82;22046;-73
2022/04/05 07:11:12;;;;;;;11.97;9.30;;;;;;;7.29;44.86;99521.22;1690505;82;21416;-73
2022/04/05 07:13:39;;;;;;;12.00;9.90;;;;;;;7.37;45.19;99516.46;1685605;84;21102;-71
2022/04/05 07:16:07;;;;;;;11.00;8.90;;;;;;;7.46;45.03;99517.56;1715598;83;21061;-72
2022/04/05 07:18:35;;;;;;;12.78;9.15;;;;;;;7.57;45.06;99517.88;1685114;84;21062;-71
2022/04/05 07:21:02;;;;;;;12.20;8.40;;;;;;;7.72;44.21;99517.09;1706947;83;21604;-72
2022/04/05 07:23:29;;;;;;;11.60;9.25;;;;;;;7.79;43.96;99515.50;1687665;82;21051;-68
2022/04/05 07:25:57;;;;;;;13.68;9.45;;;;;;;7.87;44.33;99515.00;1690934;84;32660;-72
2022/04/05 07:28:24;;;;;;;10.18;8.80;;;;;;;8.04;44.13;99508.89;1710680;83;21054;-70
2022/04/05 07:30:50;;;;;;;9.70;8.33;;;;;;;8.19;43.51;99506.75;1687415;84;21188;-71
2022/04/05 07:33:18;;;;;;;12.47;9.95;;;;;;;8.32;42.35;99496.89;1679405;84;21223;-71
2022/04/05 07:35:45;;;;;;;12.07;8.93;;;;;;;8.35;42.34;99497.69;1681595;84;21356;-71
2022/04/05 07:38:15;;;;;;;10.70;8.88;;;;;;;8.38;41.61;99493.20;1693569;83;20972;-71
2022/04/05 07:40:52;;;;;;;12.20;8.45;;;;;;;8.39;41.68;99490.82;1717021;83;21600;-72
2022/04/05 07:43:24;;;;;;;10.70;8.55;;;;;;;8.47;41.41;99494.80;1699069;82;21642;-71
2022/04/05 07:45:51;;;;;;;11.15;8.80;;;;;;;8.36;39.46;99490.53;1693122;82;21122;-70
2022/04/05 07:48:21;;;;;;;9.30;7.67;;;;;;;8.17;39.96;99492.40;1687795;83;21027;-72
2022/04/05 07:50:48;;;;;;;8.83;7.33;;;;;;;8.17;40.44;99483.09;1681333;83;20983;-70
2022/04/05 07:53:16;;;;;;;10.95;9.00;;;;;;;8.25;40.77;99471.64;1675831;85;20992;-72
2022/04/05 07:55:43;;;;;;;9.80;8.53;;;;;;;8.33;40.42;99487.08;1674372;84;21106;-71
2022/04/05 07:58:09;;;;;;;11.45;8.25;;;;;;;8.35;40.24;99467.63;1679758;84;21222;-70
2022/04/05 08:00:36;;;;;;;9.95;8.38;;;;;;;8.42;40.15;99462.86;1714648;83;21010;-72
2022/04/05 08:03:04;;;;;;;11.78;8.23;;;;;;;8.45;39.45;99461.78;1675968;82;21024;-70
2022/04/05 08:05:31;;;;;;;11.18;8.18;;;;;;;8.42;39.16;99460.19;1676264;84;21035;-71
2022/04/05 08:07:58;;;;;;;9.23;7.78;;;;;;;8.43;39.66;99463.14;1710468;83;21120;-72
2022/04/05 08:10:24;;;;;;;10.15;8.78;;;;;;;8.42;39.42;99451.70;1698070;83;21155;-70
2022/04/05 08:12:51;;;;;;;9.33;7.40;;;;;;;8.41;39.25;99454.08;1724701;83;21414;-71
2022/04/05 08:15:22;;;;;;;9.75;7.62;;;;;;;8.43;39.59;99451.17;1704085;82;21055;-71
2022/04/05 08:17:54;;;;;;;9.70;8.00;;;;;;;8.48;39.32;99451.67;1704025;84;21012;-71
2022/04/05 08:20:19;;;;;;;10.30;7.92;;;;;;;8.42;38.93;99437.58;1723435;83;21050;-71
2022/04/05 08:22:47;;;;;;;9.93;7.95;;;;;;;8.36;39.22;99434.66;1678252;84;21078;-72
2022/04/05 08:25:17;;;;;;;9.98;8.08;;;;;;;8.32;39.33;99449.55;1676723;84;21156;-71
2022/04/05 08:27:46;;;;;;;11.10;8.03;;;;;;;8.30;39.16;99451.16;1676043;84;21065;-71
2022/04/05 08:30:15;;;;;;;11.08;8.28;;;;;;;8.23;39.43;99460.74;1681106;84;21082;-71
2022/04/05 08:32:44;;;;;;;10.88;7.67;;;;;;;8.18;39.81;99455.95;1687170;82;21553;-72
2022/04/05 08:35:12;;;;;;;10.82;8.13;;;;;;;8.23;40.11;99458.08;1687315;82;21223;-71
2022/04/05 08:37:40;;;;;;;11.48;8.48;;;;;;;8.30;39.59;99459.14;1682181;84;21597;-72
2022/04/05 08:40:08;;;;;;;11.20;8.38;;;;;;;8.28;38.95;99447.16;1677179;84;21110;-72
2022/04/05 08:42:37;;;;;;;9.15;8.20;;;;;;;8.19;39.02;99457.53;1676916;84;21058;-72
2022/04/05 08:45:08;;;;;;;11.55;9.08;;;;;;;8.07;39.40;99460.48;1675124;84;21149;-71
2022/04/05 08:47:38;;;;;;;;;;;;;;;8.04;39.60;99458.36;1678531;84;21173;-72
2022/04/05 08:50:07;;;;;;;9.53;7.70;;;;;;;8.01;39.92;99454.91;1675999;84;20529;-71
2022/04/05 08:52:34;;;;;;;10.93;8.38;;;;;;;8.09;40.23;99471.64;1668167;83;21109;-72
2022/04/05 08:55:01;;;;;;;10.70;8.55;;;;;;;8.15;40.35;99457.28;1670505;84;21420;-72
2022/04/05 08:57:29;;;;;;;9.25;7.67;;;;;;;8.17;39.91;99433.88;1696624;83;21010;-70
2022/04/05 08:59:56;;;;;;;10.23;7.95;;;;;;;8.10;40.51;99457.30;1703992;82;21299;-72
2022/04/05 09:02:26;;;;;;;9.58;7.60;;;;;;;8.09;41.02;99441.05;1698947;82;21609;-72
2022/04/05 09:04:53;;;;;;;10.50;8.58;;;;;;;8.13;41.44;99455.97;1684610;82;21052;-71
2022/04/05 09:07:24;;;;;;;9.00;7.35;;;;;;;8.17;41.45;99455.16;1703893;82;21554;-72
2022/04/05 09:10:16;;;;;;;9.13;7.03;;;;;;;8.17;42.02;99466.34;1689048;82;21058;-71
2022/04/05 09:12:50;;;;;;;10.28;9.03;;;;;;;8.00;43.40;99448.00;1678562;84;21227;-70
2022/04/05 09:15:24;;;;;;;10.50;8.88;;;;;;;7.83;44.44;99456.25;1676684;84;21545;-70
2022/04/05 09:17:54;;;;;;;12.10;9.63;;;;;;;7.64;45.69;99457.28;1677089;84;21094;-72
2022/04/05 09:20:24;;;;;;;11.63;9.73;;;;;;;7.51;46.27;99474.54;1687926;82;21118;-70
2022/04/05 09:22:52;;;;;;;11.00;9.20;;;;;;;7.36;46.94;99453.24;1710410;83;21495;-71
2022/04/05 09:25:21;;;;;;;11.75;9.30;;;;;;;7.29;47.77;99464.66;1661793;85;20992;-71
2022/04/05 09:27:57;;;;;;;11.30;9.05;;;;;;;7.26;48.08;99461.98;1695339;84;21009;-71
2022/04/05 09:30:33;;;;;;;12.45;9.90;;;;;;;7.24;48.55;99463.33;1670549;84;21703;-71
2022/04/05 09:33:03;;;;;;;11.03;9.45;;;;;;;7.14;49.15;99458.78;1678465;84;21561;-71
2022/04/05 09:35:42;;;;;;;13.10;9.20;;;;;;;7.09;49.36;99447.34;1724581;83;21054;-72
2022/04/05 09:38:14;;;;;;;11.88;9.38;;;;;;;7.13;50.19;99447.08;1691659;83;21142;-71
2022/04/05 09:40:42;;;;;;;10.00;8.85;;;;;;;7.08;50.72;99453.19;1707913;83;21214;-70
2022/04/05 09:43:14;;;;;;;10.78;8.93;;;;;;;7.12;51.90;99449.47;1690819;82;21038;-70
2022/04/05 09:45:54;;;;;;;12.65;9.88;;;;;;;7.15;51.70;99444.44;1683938;84;21003;-72
2022/04/05 09:48:25;;;;;;;11.85;9.05;;;;;;;7.20;51.49;99448.42;1704351;82;21031;-72
2022/04/05 09:51:10;;;;;;;11.30;9.48;;;;;;;7.34;51.42;99433.31;1719204;83;21097;-70
2022/04/05 09:53:50;;;;;;;10.65;9.38;;;;;;;7.43;50.85;99439.17;1684878;83;21073;-72
2022/04/05 09:56:28;;;;;;;9.90;8.10;;;;;;;7.57;50.39;99420.05;1707123;83;20968;-71
2022/04/05 09:59:02;;;;;;;11.35;9.33;;;;;;;7.79;49.86;99419.81;1677978;83;21073;-71
2022/04/05 10:01:28;;;;;;;11.25;9.15;;;;;;;8.00;49.75;99414.77;1681370;84;21047;-71
2022/04/05 10:04:05;;;;;;;11.65;9.28;;;;;;;8.29;49.00;99414.16;1676092;85;21843;-71
2022/04/05 10:06:33;;;;;;;9.35;8.28;;;;;;;8.56;48.29;99409.89;1676677;84;21121;-71
2022/04/05 10:09:01;;;;;;;10.82;8.85;;;;;;;8.75;47.88;99418.05;1674418;84;21062;-71
2022/04/05 10:11:32;;;;;;;9.98;8.90;;;;;;;8.80;48.08;99420.70;1687783;82;21536;-71
2022/04/05 10:13:59;;;;;;;11.00;8.78;;;;;;;8.82;48.00;99408.72;1691092;82;21046;-72
2022/04/05 10:16:29;;;;;;;9.25;7.58;;;;;;;8.82;47.76;99402.59;1688459;84;21242;-70
2022/04/05 10:19:03;;;;;;;9.90;8.70;;;;;;;8.82;47.22;99404.72;1688968;84;21043;-70
2022/04/05 10:21:35;;;;;;;10.10;8.88;;;;;;;8.69;46.72;99390.13;1675788;84;21079;-70
2022/04/05 10:24:04;;;;;;;9.78;8.23;;;;;;;8.47;46.79;99390.22;1693233;82;21090;-71
2022/04/05 10:26:35;;;;;;;9.58;8.23;;;;;;;8.30;47.37;99405.14;1687588;84;21645;-71
2022/04/05 10:29:06;;;;;;;10.05;8.35;;;;;;;8.15;47.83;99389.99;1675597;84;21102;-71
2022/04/05 10:32:12;;;;;;;10.40;9.10;;;;;;;8.12;48.11;99390.53;1682510;82;22217;-71
2022/04/05 10:34:50;;;;;;;10.82;8.83;;;;;;;8.21;48.12;99393.70;1690609;84;21704;-71
2022/04/05 10:37:19;;;;;;;11.40;8.48;;;;;;;8.41;47.21;99394.20;1705467;83;21112;-72
2022/04/05 10:40:10;;;;;;;10.18;8.33;;;;;;;8.38;46.42;99372.67;1680305;84;21086;-71
2022/04/05 10:42:49;;;;;;;10.28;8.90;;;;;;;8.33;46.81;99396.08;1703299;82;21177;-72
2022/04/05 10:45:28;;;;;;;10.35;8.30;;;;;;;8.26;46.62;99391.58;1695599;83;21122;-71
2022/04/05 10:48:18;;;;;;;10.72;8.83;;;;;;;8.17;46.93;99378.02;1721098;83;21070;-72
2022/04/05 10:51:06;;;;;;;10.32;8.43;;;;;;;8.14;46.83;99375.91;1697668;83;21086;-72
2022/04/05 10:56:31;;;;;;;9.53;8.43;;;;;;;8.07;46.69;99374.06;1687440;84;21125;-73
2022/04/05 10:59:14;;;;;;;9.88;8.08;;;;;;;8.10;46.99;99373.52;1699863;82;21008;-72
2022/04/05 11:01:45;;;;;;;8.85;7.92;;;;;;;8.21;46.61;99368.97;1704243;82;20983;-73
2022/04/05 11:04:29;;;;;;;10.35;7.92;;;;;;;8.31;46.40;99360.95;1699976;84;21110;-71
2022/04/05 11:07:09;;;;;;;10.15;7.95;;;;;;;8.39;45.60;99364.44;1692229;84;21090;-71
2022/04/05 11:09:50;;;;;;;9.15;7.80;;;;;;;8.33;45.49;99374.80;1696938;83;21914;-71
2022/04/05 11:12:25;;;;;;;9.13;7.53;;;;;;;8.30;45.59;99363.91;1699158;83;26511;-70
2022/04/05 11:14:57;;;;;;;9.78;7.95;;;;;;;8.28;45.34;99366.02;1680734;83;21103;-72
2022/04/05 11:17:26;;;;;;;9.63;7.92;;;;;;;8.22;45.73;99334.11;1708032;83;21070;-71
2022/04/05 11:19:57;;;;;;;9.93;8.00;;;;;;;8.24;45.73;99356.46;1684506;83;21696;-70
2022/04/05 11:22:28;;;;;;;9.78;7.97;;;;;;;8.28;45.82;99346.87;1678520;84;21159;-71
2022/04/05 11:25:14;;;;;;;;;;;;;;;8.29;46.01;99355.64;1704256;83;21137;-72
2022/04/05 11:27:48;;;;;;;11.75;9.00;;;;;;;8.31;46.03;99337.55;1670416;84;20175;-72
2022/04/05 11:30:27;;;;;;;11.93;8.55;;;;;;;8.33;46.14;99332.77;1701851;83;21549;-71
2022/04/05 11:33:21;;;;;;;9.58;7.62;;;;;;;8.31;45.97;99363.62;1690503;82;21125;-72
2022/04/05 11:36:02;;;;;;;9.33;7.95;;;;;;;8.19;45.78;99347.97;1675930;84;21962;-70
2022/04/05 11:38:36;;;;;;;13.25;7.95;;;;;;;8.09;46.36;99330.69;1675497;84;21070;-72
2022/04/05 11:41:24;;;;;;;8.85;6.87;;;;;;;8.10;46.30;99338.95;1685745;82;20984;-70
2022/04/05 11:44:01;;;;;;;9.85;7.72;;;;;;;8.14;46.36;99332.02;1676112;84;21062;-71
2022/04/05 11:46:31;;;;;;;9.78;7.72;;;;;;;8.25;46.53;99329.32;1704688;83;21054;-71
2022/04/05 11:49:01;;;;;;;11.60;8.50;;;;;;;8.36;46.07;99322.91;1675007;84;21109;-71
2022/04/05 11:51:34;;;;;;;10.70;7.60;;;;;;;8.35;46.38;99306.13;1717580;83;20922;-71
2022/04/05 11:54:11;;;;;;;10.15;7.60;;;;;;;8.41;46.41;99311.73;1690950;83;21026;-71